sensor_id;sensor_type;location;lat;lon;timestamp;pressure;altitude;pressure_sealevel;temperature;humidity
40918;BME280;26644;50.248;19.032;2023-03-26T00:00:41;97139.22;;;7.93;65.44
40918;BME280;26644;50.248;19.032;2023-03-26T00:03:49;97156.66;;;7.98;65.49
40918;BME280;26644;50.248;19.032;2023-03-26T00:06:59;97158.81;;;8.01;65.78
40918;BME280;26644;50.248;19.032;2023-03-26T00:10:07;97148.75;;;7.96;65.42
40918;BME280;26644;50.248;19.032;2023-03-26T00:13:13;97160.72;;;8.00;65.74
40918;BME280;26644;50.248;19.032;2023-03-26T00:16:19;97161.56;;;8.01;65.78
40918;BME280;26644;50.248;19.032;2023-03-26T00:19:25;97173.00;;;8.03;66.01
40918;BME280;26644;50.248;19.032;2023-03-26T00:22:30;97172.25;;;7.97;65.86
40918;BME280;26644;50.248;19.032;2023-03-26T00:25:39;97186.94;;;7.82;67.57
40918;BME280;26644;50.248;19.032;2023-03-26T00:28:45;97192.28;;;7.68;70.39
40918;BME280;26644;50.248;19.032;2023-03-26T00:31:51;97152.25;;;7.58;71.31
40918;BME280;26644;50.248;19.032;2023-03-26T00:34:57;97152.72;;;7.41;72.15
40918;BME280;26644;50.248;19.032;2023-03-26T00:38:03;97140.84;;;7.27;73.24
40918;BME280;26644;50.248;19.032;2023-03-26T00:41:12;97145.56;;;7.21;74.26
40918;BME280;26644;50.248;19.032;2023-03-26T00:44:23;97123.88;;;7.01;75.18
40918;BME280;26644;50.248;19.032;2023-03-26T00:47:28;97137.25;;;7.02;75.75
40918;BME280;26644;50.248;19.032;2023-03-26T00:50:34;97128.00;;;6.98;76.24
40918;BME280;26644;50.248;19.032;2023-03-26T00:53:39;97133.00;;;6.91;76.79
40918;BME280;26644;50.248;19.032;2023-03-26T00:56:48;97124.91;;;6.81;76.70
40918;BME280;26644;50.248;19.032;2023-03-26T00:59:56;97116.50;;;6.77;76.84
40918;BME280;26644;50.248;19.032;2023-03-26T01:03:13;97105.09;;;6.70;76.64
40918;BME280;26644;50.248;19.032;2023-03-26T01:06:23;97113.53;;;6.73;76.22
40918;BME280;26644;50.248;19.032;2023-03-26T01:09:39;97105.88;;;6.70;76.05
40918;BME280;26644;50.248;19.032;2023-03-26T01:12:53;97099.69;;;6.65;76.49
40918;BME280;26644;50.248;19.032;2023-03-26T01:15:59;97099.69;;;6.65;76.28
40918;BME280;26644;50.248;19.032;2023-03-26T01:19:11;97098.03;;;6.64;76.24
40918;BME280;26644;50.248;19.032;2023-03-26T01:22:25;97095.59;;;6.62;76.13
40918;BME280;26644;50.248;19.032;2023-03-26T01:25:42;97100.25;;;6.61;76.45
40918;BME280;26644;50.248;19.032;2023-03-26T01:28:55;97109.34;;;6.52;76.45
40918;BME280;26644;50.248;19.032;2023-03-26T01:32:18;97102.25;;;6.51;76.39
40918;BME280;26644;50.248;19.032;2023-03-26T01:35:40;97098.19;;;6.48;76.24
40918;BME280;26644;50.248;19.032;2023-03-26T01:38:59;97107.72;;;6.51;76.13
40918;BME280;26644;50.248;19.032;2023-03-26T01:42:20;97105.53;;;6.48;75.84
40918;BME280;26644;50.248;19.032;2023-03-26T01:45:40;97103.34;;;6.50;75.70
40918;BME280;26644;50.248;19.032;2023-03-26T01:48:48;97088.41;;;6.42;75.18
40918;BME280;26644;50.248;19.032;2023-03-26T01:51:55;97074.31;;;6.35;75.13
40918;BME280;26644;50.248;19.032;2023-03-26T01:55:01;97100.91;;;6.48;74.82
40918;BME280;26644;50.248;19.032;2023-03-26T01:58:17;97099.31;;;6.42;74.49
40918;BME280;26644;50.248;19.032;2023-03-26T02:01:41;97091.09;;;6.47;74.37
40918;BME280;26644;50.248;19.032;2023-03-26T02:05:02;97095.19;;;6.50;74.05
40918;BME280;26644;50.248;19.032;2023-03-26T02:08:18;97081.00;;;6.48;74.04
40918;BME280;26644;50.248;19.032;2023-03-26T02:11:39;97085.31;;;6.54;73.87
40918;BME280;26644;50.248;19.032;2023-03-26T02:14:48;97090.47;;;6.55;73.66
40918;BME280;26644;50.248;19.032;2023-03-26T02:17:55;97090.94;;;6.68;73.45
40918;BME280;26644;50.248;19.032;2023-03-26T02:21:04;97097.41;;;6.77;72.91
40918;BME280;26644;50.248;19.032;2023-03-26T02:24:16;97101.13;;;6.86;72.70
40918;BME280;26644;50.248;19.032;2023-03-26T02:27:23;97101.13;;;6.86;72.15
40918;BME280;26644;50.248;19.032;2023-03-26T02:30:32;97085.56;;;6.87;72.38
40918;BME280;26644;50.248;19.032;2023-03-26T02:33:38;97093.66;;;6.97;71.90
40918;BME280;26644;50.248;19.032;2023-03-26T02:36:46;97089.00;;;6.98;71.52
40918;BME280;26644;50.248;19.032;2023-03-26T02:39:50;97103.66;;;7.07;71.32
40918;BME280;26644;50.248;19.032;2023-03-26T02:43:04;97117.50;;;7.16;70.71
40918;BME280;26644;50.248;19.032;2023-03-26T02:46:12;97099.69;;;7.23;70.88
40918;BME280;26644;50.248;19.032;2023-03-26T02:49:46;97103.63;;;7.36;71.00
40918;BME280;26644;50.248;19.032;2023-03-26T02:52:58;97083.50;;;7.27;70.43
40918;BME280;26644;50.248;19.032;2023-03-26T02:56:08;97094.09;;;7.34;70.41
40918;BME280;26644;50.248;19.032;2023-03-26T02:59:23;97074.28;;;7.23;70.44
40918;BME280;26644;50.248;19.032;2023-03-26T03:02:52;97075.13;;;7.23;70.98
40918;BME280;26644;50.248;19.032;2023-03-26T03:06:07;97071.16;;;7.10;71.24
40918;BME280;26644;50.248;19.032;2023-03-26T03:09:20;97069.91;;;6.98;71.27
40918;BME280;26644;50.248;19.032;2023-03-26T03:12:51;97077.78;;;6.99;71.60
40918;BME280;26644;50.248;19.032;2023-03-26T03:15:57;97074.84;;;6.95;72.04
40918;BME280;26644;50.248;19.032;2023-03-26T03:19:04;97081.63;;;6.98;71.78
40918;BME280;26644;50.248;19.032;2023-03-26T03:22:12;97077.72;;;7.04;71.90
40918;BME280;26644;50.248;19.032;2023-03-26T03:25:17;97062.25;;;7.00;71.34
40918;BME280;26644;50.248;19.032;2023-03-26T03:28:25;97047.31;;;6.92;71.47
40918;BME280;26644;50.248;19.032;2023-03-26T03:31:30;97073.97;;;7.00;71.18
40918;BME280;26644;50.248;19.032;2023-03-26T03:34:42;97071.00;;;6.97;71.25
40918;BME280;26644;50.248;19.032;2023-03-26T03:37:50;97065.59;;;6.91;71.74
40918;BME280;26644;50.248;19.032;2023-03-26T03:40:55;97070.63;;;6.79;71.92
40918;BME280;26644;50.248;19.032;2023-03-26T03:44:03;97060.31;;;6.76;71.82
40918;BME280;26644;50.248;19.032;2023-03-26T03:47:09;97066.91;;;6.70;71.80
40918;BME280;26644;50.248;19.032;2023-03-26T03:50:18;97053.34;;;6.59;71.96
40918;BME280;26644;50.248;19.032;2023-03-26T03:53:39;97077.06;;;6.64;72.10
40918;BME280;26644;50.248;19.032;2023-03-26T03:56:47;97080.28;;;6.66;71.89
40918;BME280;26644;50.248;19.032;2023-03-26T04:00:11;97075.66;;;6.67;71.92
40918;BME280;26644;50.248;19.032;2023-03-26T04:03:18;97073.75;;;6.67;72.02
40918;BME280;26644;50.248;19.032;2023-03-26T04:06:26;97080.19;;;6.76;71.86
40918;BME280;26644;50.248;19.032;2023-03-26T04:09:31;97042.22;;;6.56;71.97
40918;BME280;26644;50.248;19.032;2023-03-26T04:12:44;97080.34;;;6.90;71.86
40918;BME280;26644;50.248;19.032;2023-03-26T04:15:51;97068.06;;;6.93;71.22
40918;BME280;26644;50.248;19.032;2023-03-26T04:18:56;97090.03;;;7.02;71.29
40918;BME280;26644;50.248;19.032;2023-03-26T04:22:05;97082.38;;;7.04;70.79
40918;BME280;26644;50.248;19.032;2023-03-26T04:25:21;97072.88;;;7.01;71.08
40918;BME280;26644;50.248;19.032;2023-03-26T04:28:43;97074.50;;;7.02;70.95
40918;BME280;26644;50.248;19.032;2023-03-26T04:31:56;97069.03;;;7.02;70.72
40918;BME280;26644;50.248;19.032;2023-03-26T04:35:09;97075.84;;;7.05;70.96
40918;BME280;26644;50.248;19.032;2023-03-26T04:38:23;97084.56;;;7.07;70.63
40918;BME280;26644;50.248;19.032;2023-03-26T04:41:28;97081.53;;;7.08;71.08
40918;BME280;26644;50.248;19.032;2023-03-26T04:44:39;97081.78;;;7.12;71.25
40918;BME280;26644;50.248;19.032;2023-03-26T04:47:47;97082.06;;;7.10;70.92
40918;BME280;26644;50.248;19.032;2023-03-26T04:50:53;97083.97;;;7.10;71.38
40918;BME280;26644;50.248;19.032;2023-03-26T04:54:01;97076.09;;;7.03;71.27
40918;BME280;26644;50.248;19.032;2023-03-26T04:57:21;97072.84;;;7.06;71.15
40918;BME280;26644;50.248;19.032;2023-03-26T05:00:43;97067.66;;;7.05;70.54
40918;BME280;26644;50.248;19.032;2023-03-26T05:03:50;97068.50;;;7.00;70.40
40918;BME280;26644;50.248;19.032;2023-03-26T05:06:57;97063.06;;;7.00;70.58
40918;BME280;26644;50.248;19.032;2023-03-26T05:10:20;97061.13;;;7.01;69.84
40918;BME280;26644;50.248;19.032;2023-03-26T05:13:37;97069.56;;;7.04;69.75
40918;BME280;26644;50.248;19.032;2023-03-26T05:16:48;97061.38;;;7.04;69.74
40918;BME280;26644;50.248;19.032;2023-03-26T05:19:54;97071.66;;;7.12;69.90
40918;BME280;26644;50.248;19.032;2023-03-26T05:23:00;97067.91;;;7.08;69.27
40918;BME280;26644;50.248;19.032;2023-03-26T05:26:11;97074.63;;;7.16;69.00
40918;BME280;26644;50.248;19.032;2023-03-26T05:29:17;97071.97;;;7.11;68.86
40918;BME280;26644;50.248;19.032;2023-03-26T05:32:26;97081.97;;;7.21;68.92
40918;BME280;26644;50.248;19.032;2023-03-26T05:35:31;97078.34;;;7.25;67.92
40918;BME280;26644;50.248;19.032;2023-03-26T05:38:37;97065.50;;;7.26;67.85
40918;BME280;26644;50.248;19.032;2023-03-26T05:41:49;97084.50;;;7.36;68.02
40918;BME280;26644;50.248;19.032;2023-03-26T05:44:54;97078.31;;;7.50;67.52
40918;BME280;26644;50.248;19.032;2023-03-26T05:48:03;97085.13;;;7.52;67.08
40918;BME280;26644;50.248;19.032;2023-03-26T05:51:08;97082.38;;;7.52;67.08
40918;BME280;26644;50.248;19.032;2023-03-26T05:54:18;97088.63;;;7.58;66.65
40918;BME280;26644;50.248;19.032;2023-03-26T05:57:43;97090.69;;;7.66;66.71
40918;BME280;26644;50.248;19.032;2023-03-26T06:01:10;97086.88;;;7.67;66.30
40918;BME280;26644;50.248;19.032;2023-03-26T06:04:38;97101.41;;;7.82;65.67
40918;BME280;26644;50.248;19.032;2023-03-26T06:08:08;97101.94;;;7.84;65.48
40918;BME280;26644;50.248;19.032;2023-03-26T06:11:15;97103.28;;;7.86;65.44
40918;BME280;26644;50.248;19.032;2023-03-26T06:14:24;97102.16;;;7.87;65.30
40918;BME280;26644;50.248;19.032;2023-03-26T06:18:07;97099.56;;;7.96;65.18
40918;BME280;26644;50.248;19.032;2023-03-26T06:21:34;97085.25;;;8.04;64.90
40918;BME280;26644;50.248;19.032;2023-03-26T06:24:45;97107.84;;;8.10;64.85
40918;BME280;26644;50.248;19.032;2023-03-26T06:28:12;97096.63;;;8.11;64.72
40918;BME280;26644;50.248;19.032;2023-03-26T06:31:46;97104.31;;;8.28;64.72
40918;BME280;26644;50.248;19.032;2023-03-26T06:35:14;97093.78;;;8.55;63.70
40918;BME280;26644;50.248;19.032;2023-03-26T06:38:19;97102.00;;;8.69;62.67
40918;BME280;26644;50.248;19.032;2023-03-26T06:41:25;97088.56;;;8.72;62.06
40918;BME280;26644;50.248;19.032;2023-03-26T06:44:46;97098.84;;;8.94;61.63
40918;BME280;26644;50.248;19.032;2023-03-26T06:48:13;97099.06;;;8.98;61.19
40918;BME280;26644;50.248;19.032;2023-03-26T06:51:46;97098.00;;;8.94;61.86
40918;BME280;26644;50.248;19.032;2023-03-26T06:55:12;97092.25;;;8.95;61.33
40918;BME280;26644;50.248;19.032;2023-03-26T06:58:43;97102.63;;;8.99;61.17
40918;BME280;26644;50.248;19.032;2023-03-26T07:02:12;97100.34;;;8.87;61.65
40918;BME280;26644;50.248;19.032;2023-03-26T07:05:39;97096.50;;;8.88;61.59
40918;BME280;26644;50.248;19.032;2023-03-26T07:09:15;97098.19;;;8.84;61.76
40918;BME280;26644;50.248;19.032;2023-03-26T07:12:52;97098.50;;;8.82;61.85
40918;BME280;26644;50.248;19.032;2023-03-26T07:16:21;97107.81;;;8.81;62.20
40918;BME280;26644;50.248;19.032;2023-03-26T07:19:57;97100.25;;;8.92;62.07
40918;BME280;26644;50.248;19.032;2023-03-26T07:23:08;97092.13;;;8.87;61.26
40918;BME280;26644;50.248;19.032;2023-03-26T07:27:02;97096.78;;;8.86;61.84
40918;BME280;26644;50.248;19.032;2023-03-26T07:30:23;97105.47;;;8.74;62.14
40918;BME280;26644;50.248;19.032;2023-03-26T07:34:09;97070.47;;;8.57;61.67
40918;BME280;26644;50.248;19.032;2023-03-26T07:37:47;97097.09;;;8.85;61.65
40918;BME280;26644;50.248;19.032;2023-03-26T07:41:07;97107.28;;;8.98;61.15
40918;BME280;26644;50.248;19.032;2023-03-26T07:44:52;97112.34;;;9.05;60.84
40918;BME280;26644;50.248;19.032;2023-03-26T07:48:19;97115.75;;;9.16;60.84
40918;BME280;26644;50.248;19.032;2023-03-26T07:51:43;97101.66;;;9.22;60.33
40918;BME280;26644;50.248;19.032;2023-03-26T07:55:14;97113.81;;;9.30;59.94
40918;BME280;26644;50.248;19.032;2023-03-26T07:58:58;97111.09;;;9.44;60.10
40918;BME280;26644;50.248;19.032;2023-03-26T08:02:51;97120.53;;;9.52;59.90
40918;BME280;26644;50.248;19.032;2023-03-26T08:06:34;97122.44;;;9.65;59.05
40918;BME280;26644;50.248;19.032;2023-03-26T08:10:09;97116.56;;;10.08;58.66
40918;BME280;26644;50.248;19.032;2023-03-26T08:13:55;97118.47;;;10.58;56.60
40918;BME280;26644;50.248;19.032;2023-03-26T08:17:13;97118.28;;;11.00;56.49
40918;BME280;26644;50.248;19.032;2023-03-26T08:20:34;97116.00;;;11.34;54.19
40918;BME280;26644;50.248;19.032;2023-03-26T08:23:54;97115.22;;;11.42;53.78
40918;BME280;26644;50.248;19.032;2023-03-26T08:27:13;97106.53;;;11.49;53.67
40918;BME280;26644;50.248;19.032;2023-03-26T08:30:27;97105.09;;;11.51;52.61
40918;BME280;26644;50.248;19.032;2023-03-26T08:33:33;97111.19;;;11.39;52.52
40918;BME280;26644;50.248;19.032;2023-03-26T08:36:43;97091.81;;;11.44;52.18
40918;BME280;26644;50.248;19.032;2023-03-26T08:39:49;97089.53;;;11.38;52.29
40918;BME280;26644;50.248;19.032;2023-03-26T08:47:11;97099.88;;;11.41;52.71
40918;BME280;26644;50.248;19.032;2023-03-26T08:54:46;97099.91;;;11.50;52.26
40918;BME280;26644;50.248;19.032;2023-03-26T09:06:42;97088.53;;;11.83;49.30
40918;BME280;26644;50.248;19.032;2023-03-26T09:23:11;97048.44;;;11.33;49.30
40918;BME280;26644;50.248;19.032;2023-03-26T09:27:08;97046.81;;;11.32;49.97
40918;BME280;26644;50.248;19.032;2023-03-26T09:31:29;97076.16;;;11.54;49.80
40918;BME280;26644;50.248;19.032;2023-03-26T09:35:22;97074.06;;;11.59;49.84
40918;BME280;26644;50.248;19.032;2023-03-26T09:39:08;97065.53;;;11.78;49.38
40918;BME280;26644;50.248;19.032;2023-03-26T09:42:29;97068.44;;;11.82;48.85
40918;BME280;26644;50.248;19.032;2023-03-26T09:46:01;97072.34;;;11.81;48.60
40918;BME280;26644;50.248;19.032;2023-03-26T09:49:38;97056.34;;;11.92;49.57
40918;BME280;26644;50.248;19.032;2023-03-26T09:53:07;97066.91;;;11.99;49.63
40918;BME280;26644;50.248;19.032;2023-03-26T09:56:40;97061.66;;;11.88;50.23
40918;BME280;26644;50.248;19.032;2023-03-26T10:00:14;97076.53;;;11.70;51.33
40918;BME280;26644;50.248;19.032;2023-03-26T10:03:37;97086.44;;;10.99;55.03
40918;BME280;26644;50.248;19.032;2023-03-26T10:07:03;97082.34;;;10.65;58.20
40918;BME280;26644;50.248;19.032;2023-03-26T10:10:25;97082.28;;;10.34;60.08
40918;BME280;26644;50.248;19.032;2023-03-26T10:13:55;97067.84;;;10.05;62.03
40918;BME280;26644;50.248;19.032;2023-03-26T10:17:25;97072.75;;;9.94;62.94
40918;BME280;26644;50.248;19.032;2023-03-26T10:20:54;97064.31;;;9.91;63.85
40918;BME280;26644;50.248;19.032;2023-03-26T10:24:28;97053.72;;;9.75;63.52
40918;BME280;26644;50.248;19.032;2023-03-26T10:28:02;97066.16;;;9.95;63.28
40918;BME280;26644;50.248;19.032;2023-03-26T10:31:34;97042.97;;;10.02;63.18
40918;BME280;26644;50.248;19.032;2023-03-26T10:34:54;97058.72;;;10.33;62.07
40918;BME280;26644;50.248;19.032;2023-03-26T10:38:15;97054.91;;;10.42;61.19
40918;BME280;26644;50.248;19.032;2023-03-26T10:41:40;97055.59;;;10.71;60.82
40918;BME280;26644;50.248;19.032;2023-03-26T10:45:14;97053.63;;;10.94;59.51
40918;BME280;26644;50.248;19.032;2023-03-26T10:48:46;97045.50;;;11.20;58.68
40918;BME280;26644;50.248;19.032;2023-03-26T10:52:15;97049.16;;;11.56;57.89
40918;BME280;26644;50.248;19.032;2023-03-26T10:55:29;97045.53;;;12.04;56.71
40918;BME280;26644;50.248;19.032;2023-03-26T10:58:43;97044.72;;;12.39;54.32
40918;BME280;26644;50.248;19.032;2023-03-26T11:01:57;97039.69;;;12.67;53.43
40918;BME280;26644;50.248;19.032;2023-03-26T11:05:35;97033.16;;;12.81;52.43
40918;BME280;26644;50.248;19.032;2023-03-26T11:08:55;97025.88;;;12.76;52.36
40918;BME280;26644;50.248;19.032;2023-03-26T11:12:15;97024.13;;;12.71;52.31
40918;BME280;26644;50.248;19.032;2023-03-26T11:15:37;97026.53;;;12.64;51.05
40918;BME280;26644;50.248;19.032;2023-03-26T11:18:53;97016.97;;;12.79;51.69
40918;BME280;26644;50.248;19.032;2023-03-26T11:22:11;97012.41;;;12.83;50.16
40918;BME280;26644;50.248;19.032;2023-03-26T11:25:36;96994.00;;;12.57;50.26
40918;BME280;26644;50.248;19.032;2023-03-26T11:29:05;97010.69;;;12.61;50.62
40918;BME280;26644;50.248;19.032;2023-03-26T11:32:37;97005.97;;;12.70;50.96
40918;BME280;26644;50.248;19.032;2023-03-26T11:35:48;97000.09;;;12.81;51.09
40918;BME280;26644;50.248;19.032;2023-03-26T11:39:01;96996.50;;;12.98;50.05
40918;BME280;26644;50.248;19.032;2023-03-26T11:42:13;96996.25;;;13.11;48.28
40918;BME280;26644;50.248;19.032;2023-03-26T11:45:26;97000.19;;;13.02;46.84
40918;BME280;26644;50.248;19.032;2023-03-26T11:48:42;96991.16;;;12.92;47.52
40918;BME280;26644;50.248;19.032;2023-03-26T11:51:51;96981.59;;;12.90;46.92
40918;BME280;26644;50.248;19.032;2023-03-26T11:54:56;96982.81;;;12.71;47.41
40918;BME280;26644;50.248;19.032;2023-03-26T11:58:03;96979.91;;;12.68;47.60
40918;BME280;26644;50.248;19.032;2023-03-26T12:01:24;96967.94;;;12.55;48.01
40918;BME280;26644;50.248;19.032;2023-03-26T12:04:37;96971.81;;;12.54;48.35
40918;BME280;26644;50.248;19.032;2023-03-26T12:07:46;96973.94;;;12.57;48.66
40918;BME280;26644;50.248;19.032;2023-03-26T12:11:06;96961.59;;;12.63;49.02
40918;BME280;26644;50.248;19.032;2023-03-26T12:14:18;96966.41;;;12.75;48.14
40918;BME280;26644;50.248;19.032;2023-03-26T12:17:31;96957.78;;;12.85;48.75
40918;BME280;26644;50.248;19.032;2023-03-26T12:20:40;96957.25;;;13.01;48.06
40918;BME280;26644;50.248;19.032;2023-03-26T12:23:58;96945.28;;;12.97;46.55
40918;BME280;26644;50.248;19.032;2023-03-26T12:27:20;96939.59;;;13.02;45.69
40918;BME280;26644;50.248;19.032;2023-03-26T12:30:33;96932.72;;;13.08;45.76
40918;BME280;26644;50.248;19.032;2023-03-26T12:33:40;96927.16;;;12.87;44.55
40918;BME280;26644;50.248;19.032;2023-03-26T12:36:54;96933.69;;;12.82;45.04
40918;BME280;26644;50.248;19.032;2023-03-26T12:40:07;96923.97;;;12.76;44.16
40918;BME280;26644;50.248;19.032;2023-03-26T12:43:38;96922.59;;;12.61;43.73
40918;BME280;26644;50.248;19.032;2023-03-26T12:46:44;96916.22;;;12.69;43.40
40918;BME280;26644;50.248;19.032;2023-03-26T12:49:51;96900.06;;;12.59;42.06
40918;BME280;26644;50.248;19.032;2023-03-26T12:53:17;96903.91;;;12.75;42.37
40918;BME280;26644;50.248;19.032;2023-03-26T12:56:42;96898.16;;;12.89;43.26
40918;BME280;26644;50.248;19.032;2023-03-26T13:00:05;96895.50;;;13.02;43.38
40918;BME280;26644;50.248;19.032;2023-03-26T13:03:33;96891.75;;;12.76;43.20
40918;BME280;26644;50.248;19.032;2023-03-26T13:06:50;96869.56;;;12.73;43.57
40918;BME280;26644;50.248;19.032;2023-03-26T13:10:26;96890.13;;;12.75;45.27
40918;BME280;26644;50.248;19.032;2023-03-26T13:17:34;96887.75;;;12.65;46.46
40918;BME280;26644;50.248;19.032;2023-03-26T13:20:54;96895.56;;;12.54;45.21
40918;BME280;26644;50.248;19.032;2023-03-26T13:24:18;96887.47;;;12.58;46.24
40918;BME280;26644;50.248;19.032;2023-03-26T13:27:44;96882.56;;;12.64;46.14
40918;BME280;26644;50.248;19.032;2023-03-26T13:31:06;96837.84;;;12.37;45.66
40918;BME280;26644;50.248;19.032;2023-03-26T13:34:27;96884.03;;;12.70;44.81
40918;BME280;26644;50.248;19.032;2023-03-26T13:37:51;96859.44;;;12.56;44.84
40918;BME280;26644;50.248;19.032;2023-03-26T13:41:11;96867.53;;;12.61;44.42
40918;BME280;26644;50.248;19.032;2023-03-26T13:44:38;96867.34;;;12.66;44.76
40918;BME280;26644;50.248;19.032;2023-03-26T13:47:55;96864.41;;;12.71;44.96
40918;BME280;26644;50.248;19.032;2023-03-26T13:51:10;96860.19;;;12.74;44.83
40918;BME280;26644;50.248;19.032;2023-03-26T13:54:27;96870.69;;;12.81;44.62
40918;BME280;26644;50.248;19.032;2023-03-26T13:57:42;96833.97;;;12.68;44.63
40918;BME280;26644;50.248;19.032;2023-03-26T14:01:01;96857.44;;;12.74;45.17
40918;BME280;26644;50.248;19.032;2023-03-26T14:04:17;96862.75;;;12.79;45.44
40918;BME280;26644;50.248;19.032;2023-03-26T14:07:32;96850.25;;;12.82;44.97
40918;BME280;26644;50.248;19.032;2023-03-26T14:10:49;96858.50;;;12.82;45.48
40918;BME280;26644;50.248;19.032;2023-03-26T14:14:05;96836.53;;;12.73;45.79
40918;BME280;26644;50.248;19.032;2023-03-26T14:17:22;96852.19;;;12.81;45.57
40918;BME280;26644;50.248;19.032;2023-03-26T14:21:00;96853.34;;;12.80;45.08
40918;BME280;26644;50.248;19.032;2023-03-26T14:24:33;96843.78;;;12.77;45.06
40918;BME280;26644;50.248;19.032;2023-03-26T14:28:18;96829.56;;;12.75;45.02
40918;BME280;26644;50.248;19.032;2023-03-26T14:31:47;96831.06;;;12.64;44.71
40918;BME280;26644;50.248;19.032;2023-03-26T14:35:23;96839.47;;;12.68;44.74
40918;BME280;26644;50.248;19.032;2023-03-26T14:42:41;96829.56;;;12.75;45.00
40918;BME280;26644;50.248;19.032;2023-03-26T14:46:06;96830.22;;;12.72;46.89
40918;BME280;26644;50.248;19.032;2023-03-26T14:53:31;96824.19;;;12.49;47.02
40918;BME280;26644;50.248;19.032;2023-03-26T14:57:15;96818.53;;;12.45;46.77
40918;BME280;26644;50.248;19.032;2023-03-26T15:01:19;96818.72;;;12.40;46.42
40918;BME280;26644;50.248;19.032;2023-03-26T15:05:04;96813.38;;;12.35;47.17
40918;BME280;26644;50.248;19.032;2023-03-26T15:09:07;96808.22;;;12.34;46.41
40918;BME280;26644;50.248;19.032;2023-03-26T15:13:04;96799.84;;;12.30;45.83
40918;BME280;26644;50.248;19.032;2023-03-26T15:16:51;96798.03;;;12.34;46.21
40918;BME280;26644;50.248;19.032;2023-03-26T15:32:50;96789.84;;;12.55;45.42
40918;BME280;26644;50.248;19.032;2023-03-26T15:44:29;96789.97;;;12.59;44.06
40918;BME280;26644;50.248;19.032;2023-03-26T15:51:44;96784.59;;;12.63;42.76
40918;BME280;26644;50.248;19.032;2023-03-26T15:55:08;96788.81;;;12.60;42.59
40918;BME280;26644;50.248;19.032;2023-03-26T15:58:44;96783.16;;;12.56;42.02
40918;BME280;26644;50.248;19.032;2023-03-26T16:02:10;96773.13;;;12.60;42.33
40918;BME280;26644;50.248;19.032;2023-03-26T16:05:45;96776.69;;;12.61;42.11
40918;BME280;26644;50.248;19.032;2023-03-26T16:09:33;96773.59;;;12.63;42.24
40918;BME280;26644;50.248;19.032;2023-03-26T16:16:55;96775.94;;;12.52;42.14
40918;BME280;26644;50.248;19.032;2023-03-26T16:20:19;96774.66;;;12.49;42.29
40918;BME280;26644;50.248;19.032;2023-03-26T16:23:50;96763.03;;;12.43;42.72
40918;BME280;26644;50.248;19.032;2023-03-26T16:27:27;96766.72;;;12.48;43.04
40918;BME280;26644;50.248;19.032;2023-03-26T16:30:35;96773.28;;;12.34;42.65
40918;BME280;26644;50.248;19.032;2023-03-26T16:33:49;96768.13;;;12.33;43.03
40918;BME280;26644;50.248;19.032;2023-03-26T16:37:14;96765.34;;;12.33;42.96
40918;BME280;26644;50.248;19.032;2023-03-26T16:40:52;96769.56;;;12.30;43.36
40918;BME280;26644;50.248;19.032;2023-03-26T16:44:13;96764.25;;;12.25;43.59
40918;BME280;26644;50.248;19.032;2023-03-26T16:47:35;96765.09;;;12.17;43.25
40918;BME280;26644;50.248;19.032;2023-03-26T16:51:00;96766.75;;;12.09;43.73
40918;BME280;26644;50.248;19.032;2023-03-26T16:54:23;96769.81;;;12.07;44.10
40918;BME280;26644;50.248;19.032;2023-03-26T16:57:45;96760.34;;;11.96;44.01
40918;BME280;26644;50.248;19.032;2023-03-26T17:01:06;96768.88;;;11.94;44.31
40918;BME280;26644;50.248;19.032;2023-03-26T17:04:18;96774.06;;;11.87;44.89
40918;BME280;26644;50.248;19.032;2023-03-26T17:07:36;96765.53;;;11.80;44.90
40918;BME280;26644;50.248;19.032;2023-03-26T17:10:57;96727.13;;;11.54;44.93
40918;BME280;26644;50.248;19.032;2023-03-26T17:14:31;96762.97;;;11.66;45.12
40918;BME280;26644;50.248;19.032;2023-03-26T17:18:06;96767.03;;;11.60;45.67
40918;BME280;26644;50.248;19.032;2023-03-26T17:21:33;96754.78;;;11.49;45.96
40918;BME280;26644;50.248;19.032;2023-03-26T17:24:54;96755.28;;;11.42;46.11
40918;BME280;26644;50.248;19.032;2023-03-26T17:28:40;96763.50;;;11.42;46.24
40918;BME280;26644;50.248;19.032;2023-03-26T17:32:00;96759.47;;;11.39;46.64
40918;BME280;26644;50.248;19.032;2023-03-26T17:35:14;96762.72;;;11.33;46.62
40918;BME280;26644;50.248;19.032;2023-03-26T17:42:26;96765.78;;;11.22;47.06
40918;BME280;26644;50.248;19.032;2023-03-26T17:45:36;96770.66;;;11.17;47.22
40918;BME280;26644;50.248;19.032;2023-03-26T17:48:46;96759.03;;;11.11;47.51
40918;BME280;26644;50.248;19.032;2023-03-26T17:52:10;96762.41;;;11.08;47.51
40918;BME280;26644;50.248;19.032;2023-03-26T17:55:25;96757.25;;;10.98;47.60
40918;BME280;26644;50.248;19.032;2023-03-26T17:58:40;96762.88;;;11.01;47.62
40918;BME280;26644;50.248;19.032;2023-03-26T18:01:51;96764.66;;;10.97;47.75
40918;BME280;26644;50.248;19.032;2023-03-26T18:05:08;96750.63;;;10.90;47.90
40918;BME280;26644;50.248;19.032;2023-03-26T18:12:30;96757.41;;;10.84;48.05
40918;BME280;26644;50.248;19.032;2023-03-26T18:16:08;96755.47;;;10.75;47.92
40918;BME280;26644;50.248;19.032;2023-03-26T18:19:19;96768.06;;;10.85;47.95
40918;BME280;26644;50.248;19.032;2023-03-26T18:22:29;96780.84;;;10.90;47.83
40918;BME280;26644;50.248;19.032;2023-03-26T18:25:35;96772.91;;;10.88;48.23
40918;BME280;26644;50.248;19.032;2023-03-26T18:28:43;96768.56;;;10.87;48.10
40918;BME280;26644;50.248;19.032;2023-03-26T18:31:57;96765.00;;;10.95;47.86
40918;BME280;26644;50.248;19.032;2023-03-26T18:35:14;96760.63;;;11.03;47.97
40918;BME280;26644;50.248;19.032;2023-03-26T18:38:22;96770.50;;;11.04;47.73
40918;BME280;26644;50.248;19.032;2023-03-26T18:41:33;96770.00;;;11.02;47.82
40918;BME280;26644;50.248;19.032;2023-03-26T18:44:43;96773.56;;;11.03;47.90
40918;BME280;26644;50.248;19.032;2023-03-26T18:47:56;96772.09;;;10.97;47.99